sensor_id;sensor_type;location;lat;lon;timestamp;P1;durP1;ratioP1;P2;durP2;ratioP2
6344;SDS011;3205;42.666;23.264;2023-02-07T00:01:48;15.23;;;7.13;;
6344;SDS011;3205;42.666;23.264;2023-02-07T00:04:14;15.57;;;7.57;;
6344;SDS011;3205;42.666;23.264;2023-02-07T00:06:41;15.50;;;8.33;;
6344;SDS011;3205;42.666;23.264;2023-02-07T00:09:07;10.50;;;6.07;;
6344;SDS011;3205;42.666;23.264;2023-02-07T00:11:36;11.60;;;4.60;;
6344;SDS011;3205;42.666;23.264;2023-02-07T00:14:05;6.90;;;4.10;;
6344;SDS011;3205;42.666;23.264;2023-02-07T00:16:33;17.67;;;9.00;;
6344;SDS011;3205;42.666;23.264;2023-02-07T00:19:00;17.57;;;7.73;;
6344;SDS011;3205;42.666;23.264;2023-02-07T00:21:26;13.50;;;6.53;;
6344;SDS011;3205;42.666;23.264;2023-02-07T00:23:55;13.87;;;7.80;;
6344;SDS011;3205;42.666;23.264;2023-02-07T00:26:22;12.43;;;5.70;;
6344;SDS011;3205;42.666;23.264;2023-02-07T00:28:51;12.07;;;5.70;;
6344;SDS011;3205;42.666;23.264;2023-02-07T00:31:20;12.77;;;5.40;;
6344;SDS011;3205;42.666;23.264;2023-02-07T00:33:47;11.57;;;6.57;;
6344;SDS011;3205;42.666;23.264;2023-02-07T00:36:15;13.27;;;6.20;;
6344;SDS011;3205;42.666;23.264;2023-02-07T00:38:44;13.37;;;6.03;;
6344;SDS011;3205;42.666;23.264;2023-02-07T00:41:11;12.13;;;6.47;;
6344;SDS011;3205;42.666;23.264;2023-02-07T00:43:39;12.00;;;6.37;;
6344;SDS011;3205;42.666;23.264;2023-02-07T00:46:05;17.67;;;5.30;;
6344;SDS011;3205;42.666;23.264;2023-02-07T00:48:33;9.60;;;5.20;;
6344;SDS011;3205;42.666;23.264;2023-02-07T00:51:01;10.70;;;4.93;;
6344;SDS011;3205;42.666;23.264;2023-02-07T00:53:27;12.53;;;6.83;;
6344;SDS011;3205;42.666;23.264;2023-02-07T00:55:54;11.90;;;5.70;;
6344;SDS011;3205;42.666;23.264;2023-02-07T00:58:21;13.40;;;6.17;;
6344;SDS011;3205;42.666;23.264;2023-02-07T01:00:48;9.47;;;5.63;;
6344;SDS011;3205;42.666;23.264;2023-02-07T01:03:14;11.33;;;6.53;;
6344;SDS011;3205;42.666;23.264;2023-02-07T01:05:41;10.67;;;5.97;;
6344;SDS011;3205;42.666;23.264;2023-02-07T01:08:08;14.40;;;7.07;;
6344;SDS011;3205;42.666;23.264;2023-02-07T01:10:37;17.67;;;7.10;;
6344;SDS011;3205;42.666;23.264;2023-02-07T01:13:04;11.33;;;6.37;;
6344;SDS011;3205;42.666;23.264;2023-02-07T01:15:35;10.83;;;5.60;;
6344;SDS011;3205;42.666;23.264;2023-02-07T01:18:02;12.53;;;6.30;;
6344;SDS011;3205;42.666;23.264;2023-02-07T01:20:28;12.13;;;6.00;;
6344;SDS011;3205;42.666;23.264;2023-02-07T01:22:55;11.50;;;6.30;;
6344;SDS011;3205;42.666;23.264;2023-02-07T01:25:21;13.53;;;7.07;;
6344;SDS011;3205;42.666;23.264;2023-02-07T01:27:48;11.30;;;5.97;;
6344;SDS011;3205;42.666;23.264;2023-02-07T01:30:14;12.30;;;6.13;;
6344;SDS011;3205;42.666;23.264;2023-02-07T01:32:41;12.07;;;6.10;;
6344;SDS011;3205;42.666;23.264;2023-02-07T01:35:08;11.63;;;5.43;;
6344;SDS011;3205;42.666;23.264;2023-02-07T01:37:34;12.17;;;5.87;;
6344;SDS011;3205;42.666;23.264;2023-02-07T01:40:00;11.90;;;5.87;;
6344;SDS011;3205;42.666;23.264;2023-02-07T01:42:28;11.00;;;5.73;;
6344;SDS011;3205;42.666;23.264;2023-02-07T01:44:59;9.13;;;5.77;;
6344;SDS011;3205;42.666;23.264;2023-02-07T01:47:46;14.33;;;5.77;;
6344;SDS011;3205;42.666;23.264;2023-02-07T01:50:13;12.83;;;6.43;;
6344;SDS011;3205;42.666;23.264;2023-02-07T01:52:41;12.97;;;6.67;;
6344;SDS011;3205;42.666;23.264;2023-02-07T01:55:08;11.53;;;5.80;;
6344;SDS011;3205;42.666;23.264;2023-02-07T01:57:37;9.57;;;5.73;;
6344;SDS011;3205;42.666;23.264;2023-02-07T02:00:04;9.33;;;5.00;;
6344;SDS011;3205;42.666;23.264;2023-02-07T02:02:33;10.07;;;5.10;;
6344;SDS011;3205;42.666;23.264;2023-02-07T02:05:01;6.97;;;4.73;;
6344;SDS011;3205;42.666;23.264;2023-02-07T02:07:29;8.47;;;5.03;;
6344;SDS011;3205;42.666;23.264;2023-02-07T02:09:57;9.67;;;4.70;;
6344;SDS011;3205;42.666;23.264;2023-02-07T02:12:38;7.60;;;4.47;;
6344;SDS011;3205;42.666;23.264;2023-02-07T02:15:18;5.83;;;4.00;;
6344;SDS011;3205;42.666;23.264;2023-02-07T02:17:58;8.93;;;4.33;;
6344;SDS011;3205;42.666;23.264;2023-02-07T02:20:50;11.30;;;5.13;;
6344;SDS011;3205;42.666;23.264;2023-02-07T02:23:38;11.87;;;3.97;;
6344;SDS011;3205;42.666;23.264;2023-02-07T02:26:36;8.93;;;4.57;;
6344;SDS011;3205;42.666;23.264;2023-02-07T02:29:25;7.50;;;4.47;;
6344;SDS011;3205;42.666;23.264;2023-02-07T02:32:13;10.37;;;5.47;;
6344;SDS011;3205;42.666;23.264;2023-02-07T02:35:15;8.07;;;5.33;;
6344;SDS011;3205;42.666;23.264;2023-02-07T02:37:49;9.17;;;4.73;;
6344;SDS011;3205;42.666;23.264;2023-02-07T02:40:26;7.83;;;4.43;;
6344;SDS011;3205;42.666;23.264;2023-02-07T02:42:57;12.87;;;5.83;;
6344;SDS011;3205;42.666;23.264;2023-02-07T02:45:30;9.60;;;5.20;;
6344;SDS011;3205;42.666;23.264;2023-02-07T02:48:01;14.90;;;5.70;;
6344;SDS011;3205;42.666;23.264;2023-02-07T02:50:29;8.67;;;4.73;;
6344;SDS011;3205;42.666;23.264;2023-02-07T02:52:58;9.53;;;4.80;;
6344;SDS011;3205;42.666;23.264;2023-02-07T02:55:36;12.40;;;5.20;;
6344;SDS011;3205;42.666;23.264;2023-02-07T02:58:15;8.40;;;4.63;;
6344;SDS011;3205;42.666;23.264;2023-02-07T03:00:55;10.77;;;5.03;;
6344;SDS011;3205;42.666;23.264;2023-02-07T03:03:34;8.30;;;4.77;;
6344;SDS011;3205;42.666;23.264;2023-02-07T03:06:14;8.30;;;5.10;;
6344;SDS011;3205;42.666;23.264;2023-02-07T03:08:59;11.73;;;6.10;;
6344;SDS011;3205;42.666;23.264;2023-02-07T03:11:35;11.20;;;5.17;;
6344;SDS011;3205;42.666;23.264;2023-02-07T03:14:07;7.60;;;4.63;;
6344;SDS011;3205;42.666;23.264;2023-02-07T03:16:42;8.43;;;5.03;;
6344;SDS011;3205;42.666;23.264;2023-02-07T03:19:20;5.73;;;3.80;;
6344;SDS011;3205;42.666;23.264;2023-02-07T03:21:50;7.20;;;4.17;;
6344;SDS011;3205;42.666;23.264;2023-02-07T03:24:20;8.00;;;4.63;;
6344;SDS011;3205;42.666;23.264;2023-02-07T03:26:50;10.40;;;5.23;;
6344;SDS011;3205;42.666;23.264;2023-02-07T03:29:18;11.17;;;4.80;;
6344;SDS011;3205;42.666;23.264;2023-02-07T03:31:47;10.00;;;5.17;;
6344;SDS011;3205;42.666;23.264;2023-02-07T03:34:18;9.03;;;5.30;;
6344;SDS011;3205;42.666;23.264;2023-02-07T03:36:48;8.17;;;4.80;;
6344;SDS011;3205;42.666;23.264;2023-02-07T03:39:21;13.97;;;5.13;;
6344;SDS011;3205;42.666;23.264;2023-02-07T03:41:48;8.90;;;5.23;;
6344;SDS011;3205;42.666;23.264;2023-02-07T03:44:20;8.57;;;4.33;;
6344;SDS011;3205;42.666;23.264;2023-02-07T03:46:50;15.60;;;5.07;;
6344;SDS011;3205;42.666;23.264;2023-02-07T03:49:16;8.17;;;5.13;;
6344;SDS011;3205;42.666;23.264;2023-02-07T03:51:44;9.03;;;4.90;;
6344;SDS011;3205;42.666;23.264;2023-02-07T03:54:10;7.73;;;4.60;;
6344;SDS011;3205;42.666;23.264;2023-02-07T03:56:37;13.50;;;5.80;;
6344;SDS011;3205;42.666;23.264;2023-02-07T03:59:03;12.87;;;6.90;;
6344;SDS011;3205;42.666;23.264;2023-02-07T04:01:29;16.90;;;7.67;;
6344;SDS011;3205;42.666;23.264;2023-02-07T04:03:55;11.87;;;6.33;;
6344;SDS011;3205;42.666;23.264;2023-02-07T04:06:22;17.13;;;6.93;;
6344;SDS011;3205;42.666;23.264;2023-02-07T04:08:50;14.27;;;6.73;;
6344;SDS011;3205;42.666;23.264;2023-02-07T04:11:17;10.70;;;6.77;;
6344;SDS011;3205;42.666;23.264;2023-02-07T04:13:43;13.77;;;7.53;;
6344;SDS011;3205;42.666;23.264;2023-02-07T04:16:09;15.73;;;7.70;;
6344;SDS011;3205;42.666;23.264;2023-02-07T04:18:35;18.00;;;7.27;;
6344;SDS011;3205;42.666;23.264;2023-02-07T04:21:01;15.40;;;6.43;;
6344;SDS011;3205;42.666;23.264;2023-02-07T04:23:29;13.00;;;7.23;;
6344;SDS011;3205;42.666;23.264;2023-02-07T04:25:55;11.70;;;6.03;;
6344;SDS011;3205;42.666;23.264;2023-02-07T04:28:22;11.80;;;6.53;;
6344;SDS011;3205;42.666;23.264;2023-02-07T04:30:48;12.07;;;6.00;;
6344;SDS011;3205;42.666;23.264;2023-02-07T04:33:14;11.80;;;6.30;;
6344;SDS011;3205;42.666;23.264;2023-02-07T04:35:40;13.93;;;6.40;;
6344;SDS011;3205;42.666;23.264;2023-02-07T04:38:07;15.90;;;7.33;;
6344;SDS011;3205;42.666;23.264;2023-02-07T04:40:34;18.37;;;7.80;;
6344;SDS011;3205;42.666;23.264;2023-02-07T04:43:00;15.50;;;7.40;;
6344;SDS011;3205;42.666;23.264;2023-02-07T04:45:26;15.10;;;7.20;;
6344;SDS011;3205;42.666;23.264;2023-02-07T04:47:52;13.13;;;6.40;;
6344;SDS011;3205;42.666;23.264;2023-02-07T04:50:19;12.90;;;5.80;;
6344;SDS011;3205;42.666;23.264;2023-02-07T04:52:45;12.37;;;5.70;;
6344;SDS011;3205;42.666;23.264;2023-02-07T04:55:12;12.50;;;6.47;;
6344;SDS011;3205;42.666;23.264;2023-02-07T04:57:38;11.87;;;6.70;;
6344;SDS011;3205;42.666;23.264;2023-02-07T05:00:05;14.57;;;6.93;;
6344;SDS011;3205;42.666;23.264;2023-02-07T05:02:31;14.83;;;7.00;;
6344;SDS011;3205;42.666;23.264;2023-02-07T05:04:58;19.13;;;8.40;;
6344;SDS011;3205;42.666;23.264;2023-02-07T05:07:24;14.00;;;7.70;;
6344;SDS011;3205;42.666;23.264;2023-02-07T05:09:50;17.83;;;7.90;;
6344;SDS011;3205;42.666;23.264;2023-02-07T05:12:17;19.37;;;8.33;;
6344;SDS011;3205;42.666;23.264;2023-02-07T05:14:44;16.17;;;7.90;;
6344;SDS011;3205;42.666;23.264;2023-02-07T05:17:10;15.33;;;8.10;;
6344;SDS011;3205;42.666;23.264;2023-02-07T05:19:36;18.83;;;7.83;;
6344;SDS011;3205;42.666;23.264;2023-02-07T05:22:03;15.03;;;7.93;;
6344;SDS011;3205;42.666;23.264;2023-02-07T05:24:29;20.03;;;8.83;;
6344;SDS011;3205;42.666;23.264;2023-02-07T05:26:55;20.53;;;7.77;;
6344;SDS011;3205;42.666;23.264;2023-02-07T05:29:23;18.00;;;8.30;;
6344;SDS011;3205;42.666;23.264;2023-02-07T05:31:50;20.60;;;9.13;;
6344;SDS011;3205;42.666;23.264;2023-02-07T05:34:35;18.40;;;9.37;;
6344;SDS011;3205;42.666;23.264;2023-02-07T05:37:01;22.00;;;9.93;;
6344;SDS011;3205;42.666;23.264;2023-02-07T05:39:27;22.40;;;9.97;;
6344;SDS011;3205;42.666;23.264;2023-02-07T05:41:54;22.33;;;10.23;;
6344;SDS011;3205;42.666;23.264;2023-02-07T05:44:20;22.53;;;10.00;;
6344;SDS011;3205;42.666;23.264;2023-02-07T05:46:47;21.17;;;9.53;;
6344;SDS011;3205;42.666;23.264;2023-02-07T05:49:14;20.13;;;8.87;;
6344;SDS011;3205;42.666;23.264;2023-02-07T05:51:40;22.23;;;9.00;;
6344;SDS011;3205;42.666;23.264;2023-02-07T05:54:06;20.63;;;8.27;;
6344;SDS011;3205;42.666;23.264;2023-02-07T05:56:32;17.80;;;8.80;;
6344;SDS011;3205;42.666;23.264;2023-02-07T05:58:58;19.27;;;8.33;;
6344;SDS011;3205;42.666;23.264;2023-02-07T06:01:24;20.20;;;9.30;;
6344;SDS011;3205;42.666;23.264;2023-02-07T06:03:50;22.90;;;10.17;;
6344;SDS011;3205;42.666;23.264;2023-02-07T06:06:17;27.83;;;10.47;;
6344;SDS011;3205;42.666;23.264;2023-02-07T06:08:43;22.33;;;10.00;;
6344;SDS011;3205;42.666;23.264;2023-02-07T06:11:11;20.37;;;9.73;;
6344;SDS011;3205;42.666;23.264;2023-02-07T06:13:38;18.23;;;9.57;;
6344;SDS011;3205;42.666;23.264;2023-02-07T06:16:04;26.63;;;9.57;;
6344;SDS011;3205;42.666;23.264;2023-02-07T06:18:31;23.73;;;10.43;;
6344;SDS011;3205;42.666;23.264;2023-02-07T06:20:57;16.73;;;8.47;;
6344;SDS011;3205;42.666;23.264;2023-02-07T06:23:24;22.07;;;9.33;;
6344;SDS011;3205;42.666;23.264;2023-02-07T06:25:50;18.77;;;9.10;;
6344;SDS011;3205;42.666;23.264;2023-02-07T06:28:16;25.43;;;10.27;;
6344;SDS011;3205;42.666;23.264;2023-02-07T06:30:42;18.43;;;9.60;;
6344;SDS011;3205;42.666;23.264;2023-02-07T06:33:10;25.10;;;10.33;;
6344;SDS011;3205;42.666;23.264;2023-02-07T06:35:36;15.40;;;8.03;;
6344;SDS011;3205;42.666;23.264;2023-02-07T06:38:03;20.53;;;9.47;;
6344;SDS011;3205;42.666;23.264;2023-02-07T06:40:30;22.27;;;10.50;;
6344;SDS011;3205;42.666;23.264;2023-02-07T06:42:56;22.90;;;9.90;;
6344;SDS011;3205;42.666;23.264;2023-02-07T06:45:22;22.73;;;10.10;;
6344;SDS011;3205;42.666;23.264;2023-02-07T06:47:48;20.57;;;9.67;;
6344;SDS011;3205;42.666;23.264;2023-02-07T06:50:16;17.10;;;8.73;;
6344;SDS011;3205;42.666;23.264;2023-02-07T06:52:42;21.40;;;8.67;;
6344;SDS011;3205;42.666;23.264;2023-02-07T06:55:10;20.60;;;9.43;;
6344;SDS011;3205;42.666;23.264;2023-02-07T06:57:37;19.60;;;8.90;;
6344;SDS011;3205;42.666;23.264;2023-02-07T07:00:03;18.90;;;9.20;;
6344;SDS011;3205;42.666;23.264;2023-02-07T07:02:31;17.67;;;9.43;;
6344;SDS011;3205;42.666;23.264;2023-02-07T07:04:57;29.63;;;11.53;;
6344;SDS011;3205;42.666;23.264;2023-02-07T07:07:23;21.63;;;9.63;;
6344;SDS011;3205;42.666;23.264;2023-02-07T07:09:49;19.97;;;9.13;;
6344;SDS011;3205;42.666;23.264;2023-02-07T07:12:16;18.77;;;9.40;;
6344;SDS011;3205;42.666;23.264;2023-02-07T07:14:43;22.70;;;10.33;;
6344;SDS011;3205;42.666;23.264;2023-02-07T07:17:09;21.03;;;11.10;;
6344;SDS011;3205;42.666;23.264;2023-02-07T07:19:37;24.13;;;10.87;;
6344;SDS011;3205;42.666;23.264;2023-02-07T07:22:03;21.80;;;11.70;;
6344;SDS011;3205;42.666;23.264;2023-02-07T07:24:29;20.03;;;10.33;;
6344;SDS011;3205;42.666;23.264;2023-02-07T07:26:57;20.23;;;10.13;;
6344;SDS011;3205;42.666;23.264;2023-02-07T07:29:24;24.80;;;11.60;;
6344;SDS011;3205;42.666;23.264;2023-02-07T07:31:50;23.40;;;10.87;;
6344;SDS011;3205;42.666;23.264;2023-02-07T07:34:17;22.27;;;10.20;;
6344;SDS011;3205;42.666;23.264;2023-02-07T07:36:43;22.40;;;11.37;;
6344;SDS011;3205;42.666;23.264;2023-02-07T07:39:10;20.63;;;10.07;;
6344;SDS011;3205;42.666;23.264;2023-02-07T07:41:36;21.80;;;9.73;;
6344;SDS011;3205;42.666;23.264;2023-02-07T07:44:02;19.83;;;9.80;;
6344;SDS011;3205;42.666;23.264;2023-02-07T07:46:29;23.47;;;10.63;;
6344;SDS011;3205;42.666;23.264;2023-02-07T07:48:55;18.67;;;9.63;;
6344;SDS011;3205;42.666;23.264;2023-02-07T07:51:22;19.07;;;9.77;;
6344;SDS011;3205;42.666;23.264;2023-02-07T07:53:48;20.30;;;10.27;;
6344;SDS011;3205;42.666;23.264;2023-02-07T07:56:14;24.23;;;10.60;;
6344;SDS011;3205;42.666;23.264;2023-02-07T07:58:40;17.07;;;8.77;;
6344;SDS011;3205;42.666;23.264;2023-02-07T08:01:08;21.13;;;10.17;;
6344;SDS011;3205;42.666;23.264;2023-02-07T08:03:34;24.33;;;9.97;;
6344;SDS011;3205;42.666;23.264;2023-02-07T08:06:01;16.47;;;9.43;;
6344;SDS011;3205;42.666;23.264;2023-02-07T08:08:27;17.07;;;9.70;;
6344;SDS011;3205;42.666;23.264;2023-02-07T08:10:53;19.27;;;10.07;;
6344;SDS011;3205;42.666;23.264;2023-02-07T08:13:19;17.70;;;9.77;;
6344;SDS011;3205;42.666;23.264;2023-02-07T08:15:45;19.13;;;10.87;;
6344;SDS011;3205;42.666;23.264;2023-02-07T08:18:12;16.73;;;10.27;;
6344;SDS011;3205;42.666;23.264;2023-02-07T08:20:39;16.93;;;10.17;;
6344;SDS011;3205;42.666;23.264;2023-02-07T08:23:06;14.17;;;9.20;;
6344;SDS011;3205;42.666;23.264;2023-02-07T08:25:32;20.17;;;11.30;;
6344;SDS011;3205;42.666;23.264;2023-02-07T08:27:58;14.30;;;9.40;;
6344;SDS011;3205;42.666;23.264;2023-02-07T08:30:25;13.17;;;8.47;;
6344;SDS011;3205;42.666;23.264;2023-02-07T08:32:52;13.30;;;7.50;;
6344;SDS011;3205;42.666;23.264;2023-02-07T08:35:19;16.73;;;9.13;;
6344;SDS011;3205;42.666;23.264;2023-02-07T08:37:46;14.13;;;8.40;;
6344;SDS011;3205;42.666;23.264;2023-02-07T08:40:13;13.53;;;8.73;;
6344;SDS011;3205;42.666;23.264;2023-02-07T08:42:39;14.40;;;9.20;;
6344;SDS011;3205;42.666;23.264;2023-02-07T08:45:05;14.50;;;9.17;;
6344;SDS011;3205;42.666;23.264;2023-02-07T08:47:32;20.73;;;10.53;;
6344;SDS011;3205;42.666;23.264;2023-02-07T08:49:59;14.10;;;8.40;;
6344;SDS011;3205;42.666;23.264;2023-02-07T08:52:25;17.73;;;9.43;;
6344;SDS011;3205;42.666;23.264;2023-02-07T08:54:51;14.13;;;8.70;;
6344;SDS011;3205;42.666;23.264;2023-02-07T08:57:19;13.50;;;9.03;;
6344;SDS011;3205;42.666;23.264;2023-02-07T08:59:49;13.67;;;8.40;;
6344;SDS011;3205;42.666;23.264;2023-02-07T09:02:15;15.33;;;8.67;;
6344;SDS011;3205;42.666;23.264;2023-02-07T09:04:43;16.13;;;7.97;;
6344;SDS011;3205;42.666;23.264;2023-02-07T09:07:10;16.63;;;8.57;;
6344;SDS011;3205;42.666;23.264;2023-02-07T09:09:36;15.33;;;7.57;;
6344;SDS011;3205;42.666;23.264;2023-02-07T09:12:03;14.30;;;7.43;;
6344;SDS011;3205;42.666;23.264;2023-02-07T09:14:30;12.00;;;6.90;;
6344;SDS011;3205;42.666;23.264;2023-02-07T09:16:56;12.03;;;7.17;;
6344;SDS011;3205;42.666;23.264;2023-02-07T09:19:22;11.93;;;7.00;;
6344;SDS011;3205;42.666;23.264;2023-02-07T09:21:48;11.33;;;7.13;;
6344;SDS011;3205;42.666;23.264;2023-02-07T09:24:15;10.73;;;6.50;;
6344;SDS011;3205;42.666;23.264;2023-02-07T09:26:41;16.50;;;7.77;;
6344;SDS011;3205;42.666;23.264;2023-02-07T09:29:09;14.10;;;8.30;;
6344;SDS011;3205;42.666;23.264;2023-02-07T09:31:39;13.93;;;8.13;;
6344;SDS011;3205;42.666;23.264;2023-02-07T09:34:06;14.77;;;9.00;;
6344;SDS011;3205;42.666;23.264;2023-02-07T09:36:33;14.43;;;7.73;;
6344;SDS011;3205;42.666;23.264;2023-02-07T09:38:59;13.23;;;7.13;;
6344;SDS011;3205;42.666;23.264;2023-02-07T09:41:35;18.57;;;8.70;;
6344;SDS011;3205;42.666;23.264;2023-02-07T09:44:11;19.10;;;10.47;;
6344;SDS011;3205;42.666;23.264;2023-02-07T09:46:42;16.90;;;9.97;;
6344;SDS011;3205;42.666;23.264;2023-02-07T09:49:14;18.00;;;9.47;;
6344;SDS011;3205;42.666;23.264;2023-02-07T09:51:52;14.70;;;8.87;;
6344;SDS011;3205;42.666;23.264;2023-02-07T09:54:21;15.70;;;7.97;;
6344;SDS011;3205;42.666;23.264;2023-02-07T09:56:50;14.40;;;8.63;;
6344;SDS011;3205;42.666;23.264;2023-02-07T09:59:20;17.63;;;9.07;;
6344;SDS011;3205;42.666;23.264;2023-02-07T10:01:50;14.10;;;8.30;;
6344;SDS011;3205;42.666;23.264;2023-02-07T10:04:30;21.50;;;8.77;;
6344;SDS011;3205;42.666;23.264;2023-02-07T10:07:02;19.77;;;9.47;;
6344;SDS011;3205;42.666;23.264;2023-02-07T10:09:32;21.87;;;9.60;;
6344;SDS011;3205;42.666;23.264;2023-02-07T10:12:06;17.87;;;10.23;;
6344;SDS011;3205;42.666;23.264;2023-02-07T10:14:48;19.70;;;10.43;;
6344;SDS011;3205;42.666;23.264;2023-02-07T10:17:29;16.40;;;9.73;;
6344;SDS011;3205;42.666;23.264;2023-02-07T10:20:25;18.23;;;9.97;;
6344;SDS011;3205;42.666;23.264;2023-02-07T10:23:00;17.50;;;10.40;;
6344;SDS011;3205;42.666;23.264;2023-02-07T10:25:40;21.90;;;10.53;;
6344;SDS011;3205;42.666;23.264;2023-02-07T10:31:15;20.07;;;10.10;;
6344;SDS011;3205;42.666;23.264;2023-02-07T10:33:46;20.83;;;10.27;;
6344;SDS011;3205;42.666;23.264;2023-02-07T10:36:14;17.87;;;9.27;;
6344;SDS011;3205;42.666;23.264;2023-02-07T10:38:42;13.97;;;7.93;;
6344;SDS011;3205;42.666;23.264;2023-02-07T10:41:18;14.73;;;8.97;;
6344;SDS011;3205;42.666;23.264;2023-02-07T10:43:53;19.37;;;10.70;;
6344;SDS011;3205;42.666;23.264;2023-02-07T10:46:21;27.93;;;10.60;;
6344;SDS011;3205;42.666;23.264;2023-02-07T10:48:47;15.90;;;9.20;;
6344;SDS011;3205;42.666;23.264;2023-02-07T10:51:18;17.93;;;9.63;;
6344;SDS011;3205;42.666;23.264;2023-02-07T10:53:49;19.20;;;8.83;;
6344;SDS011;3205;42.666;23.264;2023-02-07T10:56:26;14.93;;;8.83;;
6344;SDS011;3205;42.666;23.264;2023-02-07T10:58:55;13.27;;;7.57;;
6344;SDS011;3205;42.666;23.264;2023-02-07T11:01:23;16.00;;;8.93;;
6344;SDS011;3205;42.666;23.264;2023-02-07T11:03:51;16.37;;;8.47;;
6344;SDS011;3205;42.666;23.264;2023-02-07T11:06:23;20.33;;;7.47;;
6344;SDS011;3205;42.666;23.264;2023-02-07T11:08:50;16.60;;;8.67;;
6344;SDS011;3205;42.666;23.264;2023-02-07T11:11:46;12.63;;;7.63;;
6344;SDS011;3205;42.666;23.264;2023-02-07T11:14:15;14.33;;;8.80;;
6344;SDS011;3205;42.666;23.264;2023-02-07T11:16:43;13.77;;;8.00;;
6344;SDS011;3205;42.666;23.264;2023-02-07T11:19:13;19.03;;;8.67;;
6344;SDS011;3205;42.666;23.264;2023-02-07T11:21:44;12.00;;;7.13;;
6344;SDS011;3205;42.666;23.264;2023-02-07T11:24:14;16.47;;;7.23;;
6344;SDS011;3205;42.666;23.264;2023-02-07T11:26:49;13.50;;;7.13;;
6344;SDS011;3205;42.666;23.264;2023-02-07T11:29:19;11.10;;;6.70;;
6344;SDS011;3205;42.666;23.264;2023-02-07T11:31:49;13.27;;;7.67;;
6344;SDS011;3205;42.666;23.264;2023-02-07T11:34:36;16.03;;;7.20;;
6344;SDS011;3205;42.666;23.264;2023-02-07T11:37:17;18.07;;;8.87;;
6344;SDS011;3205;42.666;23.264;2023-02-07T11:39:48;13.87;;;7.93;;
6344;SDS011;3205;42.666;23.264;2023-02-07T11:42:17;12.43;;;7.60;;
6344;SDS011;3205;42.666;23.264;2023-02-07T11:44:46;10.03;;;6.37;;
6344;SDS011;3205;42.666;23.264;2023-02-07T11:47:15;12.73;;;6.60;;
6344;SDS011;3205;42.666;23.264;2023-02-07T11:49:46;11.07;;;6.70;;
6344;SDS011;3205;42.666;23.264;2023-02-07T11:52:16;11.47;;;7.30;;
6344;SDS011;3205;42.666;23.264;2023-02-07T11:54:46;12.57;;;6.80;;
6344;SDS011;3205;42.666;23.264;2023-02-07T11:57:16;12.20;;;6.57;;
6344;SDS011;3205;42.666;23.264;2023-02-07T11:59:44;14.63;;;7.27;;
6344;SDS011;3205;42.666;23.264;2023-02-07T12:02:15;14.37;;;6.93;;
6344;SDS011;3205;42.666;23.264;2023-02-07T12:04:45;10.47;;;6.43;;
6344;SDS011;3205;42.666;23.264;2023-02-07T12:07:13;14.70;;;7.87;;
6344;SDS011;3205;42.666;23.264;2023-02-07T12:09:45;12.90;;;6.77;;
6344;SDS011;3205;42.666;23.264;2023-02-07T12:12:15;15.53;;;8.27;;
6344;SDS011;3205;42.666;23.264;2023-02-07T12:14:47;14.77;;;9.07;;
6344;SDS011;3205;42.666;23.264;2023-02-07T12:17:21;20.37;;;9.27;;
6344;SDS011;3205;42.666;23.264;2023-02-07T12:19:52;19.73;;;9.30;;
6344;SDS011;3205;42.666;23.264;2023-02-07T12:22:24;12.47;;;7.63;;
6344;SDS011;3205;42.666;23.264;2023-02-07T12:25:00;12.87;;;7.33;;
6344;SDS011;3205;42.666;23.264;2023-02-07T12:27:31;17.30;;;9.13;;
6344;SDS011;3205;42.666;23.264;2023-02-07T12:30:03;16.10;;;8.73;;
6344;SDS011;3205;42.666;23.264;2023-02-07T12:32:41;15.60;;;8.50;;
6344;SDS011;3205;42.666;23.264;2023-02-07T12:35:17;14.60;;;8.13;;
6344;SDS011;3205;42.666;23.264;2023-02-07T12:37:51;15.53;;;8.87;;
6344;SDS011;3205;42.666;23.264;2023-02-07T12:40:27;17.10;;;9.60;;
6344;SDS011;3205;42.666;23.264;2023-02-07T12:43:00;19.27;;;9.23;;
6344;SDS011;3205;42.666;23.264;2023-02-07T12:45:33;15.00;;;8.07;;
6344;SDS011;3205;42.666;23.264;2023-02-07T12:48:18;16.27;;;9.20;;
6344;SDS011;3205;42.666;23.264;2023-02-07T12:50:58;22.77;;;10.53;;
6344;SDS011;3205;42.666;23.264;2023-02-07T12:53:36;16.03;;;8.40;;
6344;SDS011;3205;42.666;23.264;2023-02-07T12:56:14;17.07;;;9.03;;
6344;SDS011;3205;42.666;23.264;2023-02-07T12:58:54;13.53;;;8.03;;
6344;SDS011;3205;42.666;23.264;2023-02-07T13:01:34;15.43;;;8.37;;
6344;SDS011;3205;42.666;23.264;2023-02-07T13:07:17;32.17;;;13.47;;
6344;SDS011;3205;42.666;23.264;2023-02-07T13:09:58;25.47;;;11.30;;
6344;SDS011;3205;42.666;23.264;2023-02-07T13:12:36;22.00;;;10.30;;
6344;SDS011;3205;42.666;23.264;2023-02-07T13:15:09;17.87;;;8.73;;
6344;SDS011;3205;42.666;23.264;2023-02-07T13:17:47;20.80;;;10.70;;
6344;SDS011;3205;42.666;23.264;2023-02-07T13:20:28;16.90;;;9.90;;
6344;SDS011;3205;42.666;23.264;2023-02-07T13:23:04;16.87;;;10.00;;
6344;SDS011;3205;42.666;23.264;2023-02-07T13:25:43;16.43;;;8.80;;
6344;SDS011;3205;42.666;23.264;2023-02-07T13:28:11;20.57;;;10.63;;
6344;SDS011;3205;42.666;23.264;2023-02-07T13:30:50;20.37;;;10.47;;
6344;SDS011;3205;42.666;23.264;2023-02-07T13:33:23;17.53;;;9.03;;
6344;SDS011;3205;42.666;23.264;2023-02-07T13:35:57;47.67;;;18.17;;
6344;SDS011;3205;42.666;23.264;2023-02-07T13:38:38;27.73;;;11.70;;
6344;SDS011;3205;42.666;23.264;2023-02-07T13:41:15;21.00;;;10.20;;
6344;SDS011;3205;42.666;23.264;2023-02-07T13:43:55;16.37;;;9.00;;
6344;SDS011;3205;42.666;23.264;2023-02-07T13:46:38;23.73;;;9.53;;
6344;SDS011;3205;42.666;23.264;2023-02-07T13:49:38;18.30;;;8.73;;
6344;SDS011;3205;42.666;23.264;2023-02-07T13:52:13;14.97;;;9.03;;
6344;SDS011;3205;42.666;23.264;2023-02-07T13:54:49;17.20;;;9.33;;
6344;SDS011;3205;42.666;23.264;2023-02-07T13:57:37;26.07;;;10.47;;
6344;SDS011;3205;42.666;23.264;2023-02-07T14:00:24;13.60;;;8.90;;
6344;SDS011;3205;42.666;23.264;2023-02-07T14:02:52;15.67;;;8.57;;
6344;SDS011;3205;42.666;23.264;2023-02-07T14:05:22;16.90;;;9.00;;
6344;SDS011;3205;42.666;23.264;2023-02-07T14:07:54;13.87;;;8.07;;
6344;SDS011;3205;42.666;23.264;2023-02-07T14:13:22;21.00;;;9.97;;
6344;SDS011;3205;42.666;23.264;2023-02-07T14:15:56;19.23;;;10.23;;
6344;SDS011;3205;42.666;23.264;2023-02-07T14:21:23;33.67;;;12.30;;
6344;SDS011;3205;42.666;23.264;2023-02-07T14:24:03;21.53;;;10.00;;
6344;SDS011;3205;42.666;23.264;2023-02-07T14:26:48;18.87;;;8.97;;
6344;SDS011;3205;42.666;23.264;2023-02-07T14:29:39;21.77;;;10.00;;
6344;SDS011;3205;42.666;23.264;2023-02-07T14:35:30;20.33;;;10.57;;
6344;SDS011;3205;42.666;23.264;2023-02-07T14:37:59;24.90;;;10.70;;
6344;SDS011;3205;42.666;23.264;2023-02-07T14:40:34;26.33;;;11.47;;
6344;SDS011;3205;42.666;23.264;2023-02-07T14:43:18;25.03;;;11.40;;
6344;SDS011;3205;42.666;23.264;2023-02-07T14:45:59;20.93;;;10.40;;
6344;SDS011;3205;42.666;23.264;2023-02-07T14:48:31;27.03;;;10.53;;
6344;SDS011;3205;42.666;23.264;2023-02-07T14:51:06;23.30;;;11.00;;
6344;SDS011;3205;42.666;23.264;2023-02-07T14:53:40;26.60;;;10.60;;
6344;SDS011;3205;42.666;23.264;2023-02-07T14:56:15;25.80;;;11.93;;
6344;SDS011;3205;42.666;23.264;2023-02-07T14:58:53;26.50;;;11.83;;
6344;SDS011;3205;42.666;23.264;2023-02-07T15:01:23;26.07;;;12.20;;
6344;SDS011;3205;42.666;23.264;2023-02-07T15:03:58;22.53;;;11.63;;
6344;SDS011;3205;42.666;23.264;2023-02-07T15:06:26;24.67;;;11.50;;
6344;SDS011;3205;42.666;23.264;2023-02-07T15:08:54;25.70;;;11.50;;
6344;SDS011;3205;42.666;23.264;2023-02-07T15:11:24;25.20;;;11.60;;
6344;SDS011;3205;42.666;23.264;2023-02-07T15:13:53;30.57;;;10.63;;
6344;SDS011;3205;42.666;23.264;2023-02-07T15:16:23;26.50;;;11.57;;
6344;SDS011;3205;42.666;23.264;2023-02-07T15:18:52;27.13;;;12.03;;
6344;SDS011;3205;42.666;23.264;2023-02-07T15:21:22;23.60;;;12.30;;